sensor_id;sensor_type;location;lat;lon;timestamp;P1;durP1;ratioP1;P2;durP2;ratioP2
55756;SDS011;41676;44.610;44.078;2022-08-01T00:04:10;18.05;;;13.60;;
55756;SDS011;41676;44.610;44.078;2022-08-01T00:09:11;21.42;;;14.63;;
55756;SDS011;41676;44.610;44.078;2022-08-01T00:14:11;20.73;;;14.65;;
55756;SDS011;41676;44.610;44.078;2022-08-01T00:19:12;16.80;;;14.57;;
55756;SDS011;41676;44.610;44.078;2022-08-01T00:24:13;15.77;;;13.98;;
55756;SDS011;41676;44.610;44.078;2022-08-01T00:29:14;16.88;;;14.38;;
55756;SDS011;41676;44.610;44.078;2022-08-01T00:34:15;18.55;;;15.10;;
55756;SDS011;41676;44.610;44.078;2022-08-01T00:39:16;25.95;;;14.93;;
55756;SDS011;41676;44.610;44.078;2022-08-01T00:44:16;23.25;;;15.02;;
55756;SDS011;41676;44.610;44.078;2022-08-01T00:49:17;28.83;;;15.00;;
55756;SDS011;41676;44.610;44.078;2022-08-01T00:54:18;19.35;;;14.05;;
55756;SDS011;41676;44.610;44.078;2022-08-01T00:59:19;17.92;;;13.60;;
55756;SDS011;41676;44.610;44.078;2022-08-01T01:04:22;29.40;;;13.47;;
55756;SDS011;41676;44.610;44.078;2022-08-01T01:20:21;41.30;;;14.80;;
55756;SDS011;41676;44.610;44.078;2022-08-01T01:30:37;19.15;;;12.82;;
55756;SDS011;41676;44.610;44.078;2022-08-01T01:35:48;36.60;;;13.35;;
55756;SDS011;41676;44.610;44.078;2022-08-01T01:40:52;18.20;;;12.57;;
55756;SDS011;41676;44.610;44.078;2022-08-01T01:45:55;22.70;;;13.33;;
55756;SDS011;41676;44.610;44.078;2022-08-01T01:50:57;34.35;;;13.80;;
55756;SDS011;41676;44.610;44.078;2022-08-01T01:55:59;35.90;;;14.43;;
55756;SDS011;41676;44.610;44.078;2022-08-01T02:01:02;21.52;;;12.48;;
55756;SDS011;41676;44.610;44.078;2022-08-01T02:06:03;17.63;;;12.60;;
55756;SDS011;41676;44.610;44.078;2022-08-01T02:11:05;25.88;;;13.90;;
55756;SDS011;41676;44.610;44.078;2022-08-01T02:16:21;16.80;;;13.40;;
55756;SDS011;41676;44.610;44.078;2022-08-01T02:21:29;18.60;;;14.15;;
55756;SDS011;41676;44.610;44.078;2022-08-01T02:26:33;18.30;;;13.15;;
55756;SDS011;41676;44.610;44.078;2022-08-01T02:31:41;21.45;;;14.00;;
55756;SDS011;41676;44.610;44.078;2022-08-01T02:36:47;23.70;;;14.18;;
55756;SDS011;41676;44.610;44.078;2022-08-01T02:41:50;26.73;;;14.82;;
55756;SDS011;41676;44.610;44.078;2022-08-01T02:46:57;26.73;;;14.82;;
55756;SDS011;41676;44.610;44.078;2022-08-01T02:52:04;26.35;;;15.63;;
55756;SDS011;41676;44.610;44.078;2022-08-01T02:57:08;18.67;;;13.48;;
55756;SDS011;41676;44.610;44.078;2022-08-01T03:02:10;18.42;;;12.07;;
55756;SDS011;41676;44.610;44.078;2022-08-01T03:07:13;25.43;;;12.77;;
55756;SDS011;41676;44.610;44.078;2022-08-01T03:12:17;43.47;;;14.02;;
55756;SDS011;41676;44.610;44.078;2022-08-01T03:17:21;14.85;;;11.60;;
55756;SDS011;41676;44.610;44.078;2022-08-01T03:22:25;20.42;;;11.55;;
55756;SDS011;41676;44.610;44.078;2022-08-01T03:27:28;15.57;;;12.52;;
55756;SDS011;41676;44.610;44.078;2022-08-01T03:32:29;21.25;;;12.13;;
55756;SDS011;41676;44.610;44.078;2022-08-01T03:37:34;18.85;;;12.93;;
55756;SDS011;41676;44.610;44.078;2022-08-01T03:42:42;26.75;;;13.10;;
55756;SDS011;41676;44.610;44.078;2022-08-01T03:47:49;19.65;;;12.70;;
55756;SDS011;41676;44.610;44.078;2022-08-01T03:52:53;40.10;;;14.07;;
55756;SDS011;41676;44.610;44.078;2022-08-01T03:57:57;22.60;;;12.52;;
55756;SDS011;41676;44.610;44.078;2022-08-01T04:08:00;18.73;;;12.20;;
55756;SDS011;41676;44.610;44.078;2022-08-01T04:13:02;22.60;;;13.25;;
55756;SDS011;41676;44.610;44.078;2022-08-01T04:18:03;20.10;;;14.20;;
55756;SDS011;41676;44.610;44.078;2022-08-01T04:23:04;15.52;;;13.38;;
55756;SDS011;41676;44.610;44.078;2022-08-01T04:28:06;19.67;;;13.37;;
55756;SDS011;41676;44.610;44.078;2022-08-01T04:33:11;15.75;;;13.27;;
55756;SDS011;41676;44.610;44.078;2022-08-01T04:38:17;19.25;;;13.77;;
55756;SDS011;41676;44.610;44.078;2022-08-01T04:43:21;18.42;;;12.60;;
55756;SDS011;41676;44.610;44.078;2022-08-01T04:48:23;14.03;;;12.63;;
55756;SDS011;41676;44.610;44.078;2022-08-01T04:53:25;14.10;;;10.98;;
55756;SDS011;41676;44.610;44.078;2022-08-01T04:58:26;14.93;;;10.50;;
55756;SDS011;41676;44.610;44.078;2022-08-01T05:03:27;16.02;;;10.30;;
55756;SDS011;41676;44.610;44.078;2022-08-01T05:08:28;14.07;;;9.93;;
55756;SDS011;41676;44.610;44.078;2022-08-01T05:13:30;12.23;;;9.40;;
55756;SDS011;41676;44.610;44.078;2022-08-01T05:18:30;17.83;;;8.73;;
55756;SDS011;41676;44.610;44.078;2022-08-01T05:23:31;11.40;;;9.23;;
55756;SDS011;41676;44.610;44.078;2022-08-01T05:28:32;11.23;;;8.15;;
55756;SDS011;41676;44.610;44.078;2022-08-01T05:33:33;10.52;;;8.55;;
55756;SDS011;41676;44.610;44.078;2022-08-01T05:38:34;12.55;;;8.05;;
55756;SDS011;41676;44.610;44.078;2022-08-01T05:43:35;10.02;;;7.90;;
55756;SDS011;41676;44.610;44.078;2022-08-01T05:48:36;16.15;;;7.00;;
55756;SDS011;41676;44.610;44.078;2022-08-01T05:53:36;18.08;;;5.90;;
55756;SDS011;41676;44.610;44.078;2022-08-01T05:58:37;13.15;;;6.30;;
55756;SDS011;41676;44.610;44.078;2022-08-01T06:03:38;16.63;;;6.90;;
55756;SDS011;41676;44.610;44.078;2022-08-01T06:08:39;8.43;;;5.53;;
55756;SDS011;41676;44.610;44.078;2022-08-01T06:13:40;15.10;;;5.97;;
55756;SDS011;41676;44.610;44.078;2022-08-01T06:18:41;10.05;;;5.22;;
55756;SDS011;41676;44.610;44.078;2022-08-01T06:23:42;15.32;;;5.78;;
55756;SDS011;41676;44.610;44.078;2022-08-01T06:28:42;12.60;;;5.13;;
55756;SDS011;41676;44.610;44.078;2022-08-01T06:33:43;16.23;;;5.28;;
55756;SDS011;41676;44.610;44.078;2022-08-01T06:38:44;10.98;;;5.25;;
55756;SDS011;41676;44.610;44.078;2022-08-01T06:43:45;10.45;;;5.75;;
55756;SDS011;41676;44.610;44.078;2022-08-01T06:48:46;8.38;;;5.35;;
55756;SDS011;41676;44.610;44.078;2022-08-01T06:53:46;11.45;;;6.25;;
55756;SDS011;41676;44.610;44.078;2022-08-01T06:58:48;18.70;;;6.35;;
55756;SDS011;41676;44.610;44.078;2022-08-01T07:03:50;13.38;;;6.00;;
55756;SDS011;41676;44.610;44.078;2022-08-01T07:08:52;11.53;;;5.50;;
55756;SDS011;41676;44.610;44.078;2022-08-01T07:13:53;13.98;;;5.70;;
55756;SDS011;41676;44.610;44.078;2022-08-01T07:18:54;9.90;;;5.72;;
55756;SDS011;41676;44.610;44.078;2022-08-01T07:23:54;18.42;;;6.85;;
55756;SDS011;41676;44.610;44.078;2022-08-01T07:28:55;17.40;;;5.90;;
55756;SDS011;41676;44.610;44.078;2022-08-01T07:33:56;19.90;;;5.00;;
55756;SDS011;41676;44.610;44.078;2022-08-01T07:38:57;11.27;;;5.82;;
55756;SDS011;41676;44.610;44.078;2022-08-01T07:43:58;8.27;;;5.10;;
55756;SDS011;41676;44.610;44.078;2022-08-01T07:48:58;27.77;;;5.95;;
55756;SDS011;41676;44.610;44.078;2022-08-01T07:53:59;10.52;;;5.20;;
55756;SDS011;41676;44.610;44.078;2022-08-01T07:59:00;13.80;;;5.28;;
55756;SDS011;41676;44.610;44.078;2022-08-01T08:04:01;29.20;;;6.28;;
55756;SDS011;41676;44.610;44.078;2022-08-01T08:09:01;13.88;;;5.95;;
55756;SDS011;41676;44.610;44.078;2022-08-01T08:14:02;15.88;;;5.95;;
55756;SDS011;41676;44.610;44.078;2022-08-01T08:19:03;14.07;;;5.55;;
55756;SDS011;41676;44.610;44.078;2022-08-01T08:24:05;11.18;;;5.80;;
55756;SDS011;41676;44.610;44.078;2022-08-01T08:29:22;18.25;;;5.72;;
55756;SDS011;41676;44.610;44.078;2022-08-01T08:34:24;15.40;;;5.70;;
55756;SDS011;41676;44.610;44.078;2022-08-01T08:39:26;15.38;;;5.72;;
55756;SDS011;41676;44.610;44.078;2022-08-01T08:44:29;11.27;;;6.10;;
55756;SDS011;41676;44.610;44.078;2022-08-01T08:49:31;15.18;;;5.60;;
55756;SDS011;41676;44.610;44.078;2022-08-01T08:59:33;16.03;;;4.70;;
55756;SDS011;41676;44.610;44.078;2022-08-01T09:04:35;21.05;;;4.90;;
55756;SDS011;41676;44.610;44.078;2022-08-01T09:14:43;12.87;;;4.30;;
55756;SDS011;41676;44.610;44.078;2022-08-01T09:19:47;13.05;;;4.60;;
55756;SDS011;41676;44.610;44.078;2022-08-01T09:30:09;15.13;;;4.43;;
55756;SDS011;41676;44.610;44.078;2022-08-01T09:35:33;15.43;;;4.07;;
55756;SDS011;41676;44.610;44.078;2022-08-01T09:40:55;16.58;;;3.95;;
55756;SDS011;41676;44.610;44.078;2022-08-01T09:45:57;13.53;;;4.40;;
55756;SDS011;41676;44.610;44.078;2022-08-01T09:51:00;8.45;;;3.40;;
55756;SDS011;41676;44.610;44.078;2022-08-01T09:56:10;10.20;;;3.80;;
55756;SDS011;41676;44.610;44.078;2022-08-01T10:01:12;14.55;;;3.63;;
55756;SDS011;41676;44.610;44.078;2022-08-01T10:06:20;15.83;;;3.73;;
55756;SDS011;41676;44.610;44.078;2022-08-01T10:11:21;6.38;;;3.03;;
55756;SDS011;41676;44.610;44.078;2022-08-01T10:16:24;14.70;;;3.60;;
55756;SDS011;41676;44.610;44.078;2022-08-01T10:21:27;14.60;;;3.55;;
55756;SDS011;41676;44.610;44.078;2022-08-01T10:26:29;12.10;;;3.30;;
55756;SDS011;41676;44.610;44.078;2022-08-01T10:31:33;8.15;;;3.10;;
55756;SDS011;41676;44.610;44.078;2022-08-01T10:36:34;36.67;;;4.10;;
55756;SDS011;41676;44.610;44.078;2022-08-01T10:41:39;10.05;;;3.33;;
55756;SDS011;41676;44.610;44.078;2022-08-01T10:46:42;19.05;;;3.72;;
55756;SDS011;41676;44.610;44.078;2022-08-01T10:51:47;12.45;;;3.38;;
55756;SDS011;41676;44.610;44.078;2022-08-01T10:56:49;5.63;;;2.85;;
55756;SDS011;41676;44.610;44.078;2022-08-01T11:07:08;12.55;;;3.33;;
55756;SDS011;41676;44.610;44.078;2022-08-01T11:12:17;13.10;;;3.53;;
55756;SDS011;41676;44.610;44.078;2022-08-01T11:33:17;8.77;;;3.30;;
55756;SDS011;41676;44.610;44.078;2022-08-01T11:38:42;7.07;;;3.00;;
55756;SDS011;41676;44.610;44.078;2022-08-01T11:44:07;8.02;;;3.08;;
55756;SDS011;41676;44.610;44.078;2022-08-01T11:54:29;6.77;;;2.97;;
55756;SDS011;41676;44.610;44.078;2022-08-01T11:59:43;8.73;;;2.80;;
55756;SDS011;41676;44.610;44.078;2022-08-01T12:10:00;6.25;;;2.63;;
55756;SDS011;41676;44.610;44.078;2022-08-01T12:15:22;8.57;;;3.10;;
55756;SDS011;41676;44.610;44.078;2022-08-01T12:20:26;7.88;;;2.92;;
55756;SDS011;41676;44.610;44.078;2022-08-01T12:25:28;6.43;;;2.78;;
55756;SDS011;41676;44.610;44.078;2022-08-01T12:30:30;9.13;;;2.70;;
55756;SDS011;41676;44.610;44.078;2022-08-01T12:40:33;9.17;;;3.03;;
55756;SDS011;41676;44.610;44.078;2022-08-01T12:45:37;5.93;;;2.90;;
55756;SDS011;41676;44.610;44.078;2022-08-01T12:50:43;7.50;;;2.55;;
55756;SDS011;41676;44.610;44.078;2022-08-01T13:00:49;8.15;;;2.63;;
55756;SDS011;41676;44.610;44.078;2022-08-01T13:06:09;7.45;;;3.10;;
55756;SDS011;41676;44.610;44.078;2022-08-01T13:11:12;10.48;;;2.60;;
55756;SDS011;41676;44.610;44.078;2022-08-01T13:16:16;6.47;;;2.50;;
55756;SDS011;41676;44.610;44.078;2022-08-01T13:21:19;4.85;;;2.42;;
55756;SDS011;41676;44.610;44.078;2022-08-01T13:26:44;12.90;;;2.47;;
55756;SDS011;41676;44.610;44.078;2022-08-01T13:31:49;8.73;;;3.03;;
55756;SDS011;41676;44.610;44.078;2022-08-01T13:36:50;5.43;;;2.70;;
55756;SDS011;41676;44.610;44.078;2022-08-01T13:41:51;11.10;;;3.03;;
55756;SDS011;41676;44.610;44.078;2022-08-01T13:46:52;12.20;;;2.67;;
55756;SDS011;41676;44.610;44.078;2022-08-01T13:51:53;4.63;;;2.58;;
55756;SDS011;41676;44.610;44.078;2022-08-01T13:56:54;10.33;;;2.97;;
55756;SDS011;41676;44.610;44.078;2022-08-01T14:01:55;5.45;;;2.95;;
55756;SDS011;41676;44.610;44.078;2022-08-01T14:06:56;8.32;;;2.70;;
55756;SDS011;41676;44.610;44.078;2022-08-01T14:11:58;15.20;;;3.10;;
55756;SDS011;41676;44.610;44.078;2022-08-01T14:16:59;7.22;;;2.80;;
55756;SDS011;41676;44.610;44.078;2022-08-01T14:22:00;9.55;;;3.33;;
55756;SDS011;41676;44.610;44.078;2022-08-01T14:27:02;11.05;;;2.90;;
55756;SDS011;41676;44.610;44.078;2022-08-01T14:32:03;12.07;;;2.97;;
55756;SDS011;41676;44.610;44.078;2022-08-01T14:37:04;23.98;;;3.78;;
55756;SDS011;41676;44.610;44.078;2022-08-01T14:42:05;20.27;;;3.30;;
55756;SDS011;41676;44.610;44.078;2022-08-01T14:47:06;23.15;;;3.53;;
55756;SDS011;41676;44.610;44.078;2022-08-01T14:52:07;18.80;;;2.83;;
55756;SDS011;41676;44.610;44.078;2022-08-01T14:57:08;31.27;;;3.97;;
55756;SDS011;41676;44.610;44.078;2022-08-01T15:02:09;6.57;;;2.67;;
55756;SDS011;41676;44.610;44.078;2022-08-01T15:12:12;22.23;;;3.65;;
55756;SDS011;41676;44.610;44.078;2022-08-01T15:17:16;14.55;;;2.67;;
55756;SDS011;41676;44.610;44.078;2022-08-01T15:22:19;37.70;;;4.68;;
55756;SDS011;41676;44.610;44.078;2022-08-01T15:27:24;22.92;;;3.40;;
55756;SDS011;41676;44.610;44.078;2022-08-01T15:32:26;29.70;;;4.50;;
55756;SDS011;41676;44.610;44.078;2022-08-01T15:37:27;15.43;;;4.00;;
55756;SDS011;41676;44.610;44.078;2022-08-01T15:42:27;24.40;;;3.83;;
55756;SDS011;41676;44.610;44.078;2022-08-01T15:47:28;19.05;;;3.35;;
55756;SDS011;41676;44.610;44.078;2022-08-01T15:52:29;17.25;;;3.03;;
55756;SDS011;41676;44.610;44.078;2022-08-01T15:57:30;35.72;;;3.83;;
55756;SDS011;41676;44.610;44.078;2022-08-01T16:02:31;14.80;;;2.83;;
55756;SDS011;41676;44.610;44.078;2022-08-01T16:07:32;18.58;;;3.28;;
55756;SDS011;41676;44.610;44.078;2022-08-01T16:12:33;12.77;;;3.20;;
55756;SDS011;41676;44.610;44.078;2022-08-01T16:17:34;12.45;;;3.22;;
55756;SDS011;41676;44.610;44.078;2022-08-01T16:22:35;14.68;;;2.80;;
55756;SDS011;41676;44.610;44.078;2022-08-01T16:27:36;13.50;;;3.13;;
55756;SDS011;41676;44.610;44.078;2022-08-01T16:32:36;13.50;;;3.10;;
55756;SDS011;41676;44.610;44.078;2022-08-01T16:37:37;20.50;;;3.33;;
55756;SDS011;41676;44.610;44.078;2022-08-01T16:42:38;8.15;;;2.42;;
55756;SDS011;41676;44.610;44.078;2022-08-01T16:47:39;15.10;;;3.30;;
55756;SDS011;41676;44.610;44.078;2022-08-01T16:52:39;12.07;;;2.45;;
55756;SDS011;41676;44.610;44.078;2022-08-01T16:57:40;12.10;;;2.58;;
55756;SDS011;41676;44.610;44.078;2022-08-01T17:02:41;11.32;;;3.15;;
55756;SDS011;41676;44.610;44.078;2022-08-01T17:07:42;12.68;;;2.85;;
55756;SDS011;41676;44.610;44.078;2022-08-01T17:12:43;14.65;;;2.88;;
55756;SDS011;41676;44.610;44.078;2022-08-01T17:17:44;12.88;;;2.90;;
55756;SDS011;41676;44.610;44.078;2022-08-01T17:22:45;11.65;;;2.70;;
55756;SDS011;41676;44.610;44.078;2022-08-01T17:27:46;19.80;;;2.85;;
55756;SDS011;41676;44.610;44.078;2022-08-01T17:32:50;10.02;;;3.35;;
55756;SDS011;41676;44.610;44.078;2022-08-01T17:37:51;17.45;;;2.97;;
55756;SDS011;41676;44.610;44.078;2022-08-01T17:42:52;11.70;;;3.67;;
55756;SDS011;41676;44.610;44.078;2022-08-01T17:47:53;15.77;;;3.33;;
55756;SDS011;41676;44.610;44.078;2022-08-01T17:52:54;10.52;;;3.53;;
55756;SDS011;41676;44.610;44.078;2022-08-01T17:57:54;23.50;;;4.40;;
55756;SDS011;41676;44.610;44.078;2022-08-01T18:02:55;14.48;;;5.88;;
55756;SDS011;41676;44.610;44.078;2022-08-01T18:07:56;19.42;;;7.22;;
55756;SDS011;41676;44.610;44.078;2022-08-01T18:12:59;25.65;;;7.60;;
55756;SDS011;41676;44.610;44.078;2022-08-01T18:18:01;12.93;;;6.83;;
55756;SDS011;41676;44.610;44.078;2022-08-01T18:23:02;11.07;;;4.30;;
55756;SDS011;41676;44.610;44.078;2022-08-01T18:28:03;10.10;;;3.42;;
55756;SDS011;41676;44.610;44.078;2022-08-01T18:33:04;12.27;;;2.92;;
55756;SDS011;41676;44.610;44.078;2022-08-01T18:38:05;10.98;;;2.90;;
55756;SDS011;41676;44.610;44.078;2022-08-01T18:43:06;15.60;;;2.95;;
55756;SDS011;41676;44.610;44.078;2022-08-01T18:48:07;6.05;;;2.70;;
55756;SDS011;41676;44.610;44.078;2022-08-01T18:53:07;8.23;;;2.60;;
55756;SDS011;41676;44.610;44.078;2022-08-01T18:58:08;17.70;;;3.25;;
55756;SDS011;41676;44.610;44.078;2022-08-01T19:03:09;11.32;;;3.00;;
55756;SDS011;41676;44.610;44.078;2022-08-01T19:08:10;14.80;;;3.03;;
55756;SDS011;41676;44.610;44.078;2022-08-01T19:13:11;9.40;;;2.50;;
55756;SDS011;41676;44.610;44.078;2022-08-01T19:18:12;10.90;;;3.22;;
55756;SDS011;41676;44.610;44.078;2022-08-01T19:23:14;8.75;;;2.42;;
55756;SDS011;41676;44.610;44.078;2022-08-01T19:28:37;7.95;;;3.13;;
55756;SDS011;41676;44.610;44.078;2022-08-01T19:33:43;8.05;;;2.50;;
55756;SDS011;41676;44.610;44.078;2022-08-01T19:38:45;14.38;;;3.22;;
55756;SDS011;41676;44.610;44.078;2022-08-01T19:43:46;8.55;;;2.90;;
55756;SDS011;41676;44.610;44.078;2022-08-01T19:48:49;9.63;;;3.05;;
55756;SDS011;41676;44.610;44.078;2022-08-01T19:53:51;9.65;;;3.10;;
55756;SDS011;41676;44.610;44.078;2022-08-01T19:58:53;12.83;;;2.97;;
55756;SDS011;41676;44.610;44.078;2022-08-01T20:03:54;9.52;;;3.13;;
55756;SDS011;41676;44.610;44.078;2022-08-01T20:08:56;7.63;;;2.92;;
55756;SDS011;41676;44.610;44.078;2022-08-01T20:13:58;4.43;;;3.20;;
55756;SDS011;41676;44.610;44.078;2022-08-01T20:19:01;7.50;;;3.37;;
55756;SDS011;41676;44.610;44.078;2022-08-01T20:24:02;8.57;;;3.55;;
55756;SDS011;41676;44.610;44.078;2022-08-01T20:29:07;7.50;;;3.65;;
55756;SDS011;41676;44.610;44.078;2022-08-01T20:39:12;7.43;;;3.35;;
55756;SDS011;41676;44.610;44.078;2022-08-01T20:44:13;9.40;;;3.63;;
55756;SDS011;41676;44.610;44.078;2022-08-01T20:49:15;11.98;;;3.63;;
55756;SDS011;41676;44.610;44.078;2022-08-01T20:54:17;15.45;;;3.58;;
55756;SDS011;41676;44.610;44.078;2022-08-01T21:10:09;10.02;;;3.72;;
55756;SDS011;41676;44.610;44.078;2022-08-01T21:15:13;8.38;;;3.45;;
55756;SDS011;41676;44.610;44.078;2022-08-01T21:20:25;7.10;;;3.90;;
55756;SDS011;41676;44.610;44.078;2022-08-01T21:30:33;8.00;;;3.83;;
55756;SDS011;41676;44.610;44.078;2022-08-01T21:35:35;18.23;;;4.65;;
55756;SDS011;41676;44.610;44.078;2022-08-01T21:40:36;11.90;;;5.13;;
55756;SDS011;41676;44.610;44.078;2022-08-01T21:45:37;11.63;;;4.55;;
55756;SDS011;41676;44.610;44.078;2022-08-01T21:50:48;12.75;;;4.95;;
55756;SDS011;41676;44.610;44.078;2022-08-01T22:01:09;13.98;;;4.80;;
55756;SDS011;41676;44.610;44.078;2022-08-01T22:06:18;14.80;;;5.15;;
55756;SDS011;41676;44.610;44.078;2022-08-01T22:11:21;31.67;;;6.13;;
55756;SDS011;41676;44.610;44.078;2022-08-01T22:16:27;28.13;;;5.53;;
55756;SDS011;41676;44.610;44.078;2022-08-01T22:26:32;14.40;;;5.32;;
55756;SDS011;41676;44.610;44.078;2022-08-01T22:31:36;6.45;;;3.92;;
55756;SDS011;41676;44.610;44.078;2022-08-01T22:36:38;15.35;;;4.88;;
55756;SDS011;41676;44.610;44.078;2022-08-01T22:41:39;7.30;;;4.65;;
55756;SDS011;41676;44.610;44.078;2022-08-01T22:46:59;10.32;;;4.63;;
55756;SDS011;41676;44.610;44.078;2022-08-01T22:52:06;8.73;;;4.20;;
55756;SDS011;41676;44.610;44.078;2022-08-01T22:57:33;6.53;;;4.28;;
55756;SDS011;41676;44.610;44.078;2022-08-01T23:02:41;9.57;;;3.67;;
55756;SDS011;41676;44.610;44.078;2022-08-01T23:07:49;6.13;;;3.72;;
55756;SDS011;41676;44.610;44.078;2022-08-01T23:12:53;9.88;;;4.07;;
55756;SDS011;41676;44.610;44.078;2022-08-01T23:17:55;6.28;;;4.25;;
55756;SDS011;41676;44.610;44.078;2022-08-01T23:22:57;8.00;;;3.90;;
55756;SDS011;41676;44.610;44.078;2022-08-01T23:27:59;8.82;;;4.07;;
55756;SDS011;41676;44.610;44.078;2022-08-01T23:33:01;11.75;;;3.85;;
55756;SDS011;41676;44.610;44.078;2022-08-01T23:38:02;9.23;;;3.75;;
55756;SDS011;41676;44.610;44.078;2022-08-01T23:43:04;10.30;;;4.20;;
55756;SDS011;41676;44.610;44.078;2022-08-01T23:48:05;10.48;;;3.70;;
55756;SDS011;41676;44.610;44.078;2022-08-01T23:53:06;6.85;;;3.80;;
55756;SDS011;41676;44.610;44.078;2022-08-01T23:58:07;8.57;;;3.80;;
